Time;durP1;ratioP1;P1;durP2;ratioP2;P2;SDS_P1;SDS_P2;PMS_P1;PMS_P2;Temp;Humidity;BMP_temperature;BMP_pressure;BME280_temperature;BME280_humidity;BME280_pressure;Samples;Min_cycle;Max_cycle;Signal;HPM_P1;HPM_P2
2021/03/28 00:01:48;;;;;;;9.30;5.00;;;5.90;99.90;;;;;;4904339;28;21709;-62
2021/03/28 00:04:25;;;;;;;11.80;5.10;;;5.90;99.90;;;;;;4942678;28;20658;-63
2021/03/28 00:06:58;;;;;;;12.93;4.70;;;5.90;99.90;;;;;;4952604;28;20639;-63
2021/03/28 00:09:38;;;;;;;11.53;5.03;;;5.90;99.90;;;;;;4959150;28;20691;-63
2021/03/28 00:12:25;;;;;;;11.37;4.83;;;6.00;99.90;;;;;;4958684;28;20647;-63
2021/03/28 00:15:14;;;;;;;9.57;4.83;;;5.90;99.90;;;;;;4953244;28;20806;-64
2021/03/28 00:18:04;;;;;;;13.50;5.00;;;5.90;99.90;;;;;;4936561;28;23044;-63
2021/03/28 00:20:36;;;;;;;12.70;5.87;;;5.90;99.90;;;;;;4957412;28;20651;-62
2021/03/28 00:23:14;;;;;;;10.57;5.30;;;5.90;99.90;;;;;;4964762;28;20878;-63
2021/03/28 00:26:20;;;;;;;8.60;5.07;;;5.80;99.90;;;;;;4967838;28;20619;-63
2021/03/28 00:29:14;;;;;;;8.90;5.07;;;5.90;99.90;;;;;;4973955;28;20658;-63
2021/03/28 00:32:09;;;;;;;11.90;5.20;;;5.80;99.90;;;;;;4973624;28;20656;-62
2021/03/28 00:34:36;;;;;;;17.83;6.00;;;5.80;99.90;;;;;;4998802;28;20653;-63
2021/03/28 00:37:15;;;;;;;12.07;5.20;;;5.80;99.90;;;;;;5002493;28;21085;-64
2021/03/28 00:39:57;;;;;;;11.53;5.13;;;5.80;99.90;;;;;;5002850;28;20690;-63
2021/03/28 00:42:52;;;;;;;10.27;5.07;;;5.70;99.90;;;;;;5019955;28;20633;-64
2021/03/28 00:45:37;;;;;;;10.60;5.53;;;5.70;99.90;;;;;;5001335;28;20575;-64
2021/03/28 00:48:27;;;;;;;11.80;5.43;;;5.70;99.90;;;;;;5000104;28;20698;-62
2021/03/28 00:51:05;;;;;;;13.47;5.57;;;5.80;99.90;;;;;;5004443;28;20648;-63
2021/03/28 00:53:52;;;;;;;10.27;5.10;;;5.80;99.90;;;;;;5011891;28;20760;-63
2021/03/28 00:56:49;;;;;;;;;;;;;;;;;;;;;
2021/03/28 00:59:54;;;;;;;10.53;5.07;;;5.70;99.90;;;;;;5004140;28;20629;-63
2021/03/28 01:02:35;;;;;;;10.57;4.83;;;5.70;99.90;;;;;;4999077;28;20648;-63
2021/03/28 01:05:00;;;;;;;9.50;5.30;;;5.70;99.90;;;;;;5004296;28;20870;-63
2021/03/28 01:07:35;;;;;;;10.13;4.50;;;5.70;99.90;;;;;;4999350;28;20621;-63
2021/03/28 01:10:30;;;;;;;9.50;4.80;;;5.80;99.90;;;;;;4998988;28;20214;-63
2021/03/28 01:13:51;;;;;;;12.83;6.00;;;5.70;99.90;;;;;;5001217;28;20645;-63
2021/03/28 01:16:56;;;;;;;8.27;4.60;;;5.70;99.90;;;;;;5000261;28;20638;-63
2021/03/28 01:19:47;;;;;;;9.00;4.70;;;5.70;99.90;;;;;;5003050;28;21095;-63
2021/03/28 01:22:39;;;;;;;18.83;6.60;;;5.80;99.90;;;;;;5002138;28;20637;-62
2021/03/28 01:25:31;;;;;;;12.50;4.60;;;5.80;99.90;;;;;;5003433;28;20701;-61
2021/03/28 01:28:16;;;;;;;6.97;4.70;;;5.70;99.90;;;;;;5003976;28;20642;-62
2021/03/28 01:30:55;;;;;;;13.93;5.70;;;5.80;99.90;;;;;;5005620;28;20602;-62
2021/03/28 01:33:54;;;;;;;15.27;5.73;;;5.70;99.90;;;;;;5000104;28;20652;-62
2021/03/28 01:36:34;;;;;;;11.97;4.53;;;5.70;99.90;;;;;;5006495;28;21077;-61
2021/03/28 01:39:29;;;;;;;8.57;5.23;;;5.80;99.90;;;;;;5003881;28;20687;-62
2021/03/28 01:42:09;;;;;;;8.63;4.90;;;5.90;99.90;;;;;;5004895;28;21324;-63
2021/03/28 01:44:54;;;;;;;11.97;5.40;;;5.70;99.90;;;;;;5001517;28;20610;-61
2021/03/28 01:47:32;;;;;;;11.03;5.10;;;5.70;99.90;;;;;;5009262;28;20615;-61
2021/03/28 01:50:37;;;;;;;9.50;4.60;;;5.70;99.90;;;;;;4999499;28;20720;-62
2021/03/28 01:53:24;;;;;;;10.37;4.37;;;5.80;99.90;;;;;;5010010;28;20741;-61
2021/03/28 01:56:16;;;;;;;16.73;5.23;;;5.70;99.90;;;;;;5008098;28;21234;-62
2021/03/28 01:59:07;;;;;;;10.60;4.63;;;5.70;99.90;;;;;;5006519;28;20646;-61
2021/03/28 02:01:51;;;;;;;9.70;5.47;;;5.70;99.90;;;;;;4996520;28;20753;-62
2021/03/28 02:04:41;;;;;;;7.70;5.37;;;5.70;99.90;;;;;;5002788;28;20672;-62
2021/03/28 02:07:49;;;;;;;9.87;4.53;;;5.70;99.90;;;;;;5003684;28;20583;-62
2021/03/28 02:10:47;;;;;;;12.80;4.60;;;5.80;99.90;;;;;;5000063;28;20628;-61
2021/03/28 02:13:42;;;;;;;13.17;4.60;;;5.80;99.90;;;;;;5000593;28;20631;-62
2021/03/28 02:16:20;;;;;;;7.73;4.47;;;5.70;99.90;;;;;;5001976;28;20629;-62
2021/03/28 02:19:20;;;;;;;9.53;4.50;;;5.80;99.90;;;;;;5003588;28;21195;-61
2021/03/28 02:21:54;;;;;;;11.23;4.83;;;5.80;99.90;;;;;;4974511;28;20650;-61
2021/03/28 02:24:38;;;;;;;8.37;4.00;;;5.80;99.90;;;;;;5002115;28;20707;-61
2021/03/28 02:27:23;;;;;;;7.60;4.30;;;5.80;99.90;;;;;;5004874;28;20629;-61
2021/03/28 02:30:25;;;;;;;13.23;4.80;;;5.70;99.90;;;;;;5003658;28;20672;-61
2021/03/28 02:33:32;;;;;;;11.63;4.80;;;5.70;99.90;;;;;;4989944;28;20642;-63
2021/03/28 02:36:39;;;;;;;;;;;;;;;;;;;;;
2021/03/28 02:39:28;;;;;;;11.13;4.47;;;5.60;99.90;;;;;;4984435;28;20709;-63
2021/03/28 02:42:05;;;;;;;13.93;5.43;;;5.60;99.90;;;;;;4978764;28;20875;-62
2021/03/28 02:44:55;;;;;;;10.80;4.13;;;5.60;99.90;;;;;;5003398;28;21211;-63
2021/03/28 02:47:57;;;;;;;10.20;4.70;;;5.60;99.90;;;;;;4999475;28;20756;-63
2021/03/28 02:50:47;;;;;;;8.87;4.77;;;5.70;99.90;;;;;;4993912;28;20574;-62
2021/03/28 02:54:03;;;;;;;9.47;4.73;;;5.60;99.90;;;;;;5002156;28;20654;-62
2021/03/28 02:57:06;;;;;;;9.97;4.10;;;5.70;99.90;;;;;;5005964;28;20669;-62
2021/03/28 03:00:13;;;;;;;11.80;4.03;;;5.70;99.90;;;;;;5001851;28;21095;-63
2021/03/28 03:03:16;;;;;;;10.33;5.20;;;5.70;99.90;;;;;;5003254;28;20676;-63
2021/03/28 03:05:57;;;;;;;10.40;4.20;;;5.70;99.90;;;;;;4944691;28;20724;-62
2021/03/28 03:09:05;;;;;;;10.67;4.93;;;5.60;99.90;;;;;;5004515;28;20669;-63
2021/03/28 03:11:56;;;;;;;13.20;5.60;;;5.60;99.90;;;;;;4945819;28;21750;-63
2021/03/28 03:15:03;;;;;;;9.60;4.40;;;5.60;99.90;;;;;;5001906;28;20894;-63
2021/03/28 03:18:05;;;;;;;10.43;4.00;;;5.40;99.90;;;;;;4999800;28;20753;-62
2021/03/28 03:21:06;;;;;;;11.50;4.13;;;5.60;99.90;;;;;;5006963;28;21229;-63
2021/03/28 03:23:53;;;;;;;10.23;3.80;;;5.60;99.90;;;;;;4998838;28;21044;-62
2021/03/28 03:27:01;;;;;;;10.20;3.80;;;5.60;99.90;;;;;;5000781;28;20660;-62
2021/03/28 03:29:53;;;;;;;6.87;3.97;;;5.60;99.90;;;;;;4994913;28;23251;-62
2021/03/28 03:32:43;;;;;;;10.63;4.30;;;5.50;99.90;;;;;;4999917;28;21825;-63
2021/03/28 03:35:33;;;;;;;7.97;3.77;;;5.60;99.90;;;;;;5002708;28;21031;-62
2021/03/28 03:38:28;;;;;;;6.83;4.23;;;5.60;99.90;;;;;;5006367;28;20686;-62
2021/03/28 03:40:56;;;;;;;8.30;4.33;;;5.50;99.90;;;;;;5002467;28;20693;-61
2021/03/28 03:43:38;;;;;;;7.43;4.40;;;5.50;99.90;;;;;;5011886;28;20626;-62
2021/03/28 03:46:29;;;;;;;10.30;4.60;;;5.70;99.90;;;;;;4998777;28;20618;-62
2021/03/28 03:49:24;;;;;;;13.47;4.50;;;5.70;99.90;;;;;;4998042;28;20705;-62
2021/03/28 03:52:01;;;;;;;10.43;3.87;;;5.70;99.90;;;;;;4997307;28;20645;-61
2021/03/28 03:54:48;;;;;;;8.23;3.67;;;5.70;99.90;;;;;;4998525;28;20602;-62
2021/03/28 03:57:37;;;;;;;9.40;4.23;;;5.70;99.90;;;;;;4991125;28;20666;-61
2021/03/28 04:03:09;;;;;;;10.30;4.47;;;5.60;99.90;;;;;;4998103;28;21243;-62
2021/03/28 04:05:38;;;;;;;11.03;4.30;;;5.50;99.90;;;;;;4997738;28;20638;-63
2021/03/28 04:09:00;;;;;;;8.30;5.20;;;5.70;99.90;;;;;;4996852;28;21214;-63
2021/03/28 04:12:07;;;;;;;9.77;4.20;;;5.70;99.90;;;;;;4991916;28;20634;-63
2021/03/28 04:15:12;;;;;;;8.97;3.80;;;5.70;99.90;;;;;;4989001;28;20613;-63
2021/03/28 04:18:21;;;;;;;11.40;4.73;;;5.70;99.90;;;;;;4945910;28;20715;-63
2021/03/28 04:21:28;;;;;;;13.43;4.53;;;5.70;99.90;;;;;;4996395;28;24141;-61
2021/03/28 04:24:29;;;;;;;7.67;4.03;;;5.80;99.90;;;;;;4997642;28;20637;-61
2021/03/28 04:27:18;;;;;;;7.13;3.60;;;5.80;99.90;;;;;;4995779;28;20638;-62
2021/03/28 04:30:05;;;;;;;11.20;4.33;;;5.80;99.90;;;;;;5004192;28;20641;-62
2021/03/28 04:33:09;;;;;;;11.00;4.00;;;5.70;99.90;;;;;;4985925;28;20734;-61
2021/03/28 04:36:06;;;;;;;7.10;3.70;;;5.80;99.90;;;;;;4972646;28;20627;-61
2021/03/28 04:38:43;;;;;;;11.60;5.33;;;5.80;99.90;;;;;;4988500;28;21125;-62
2021/03/28 04:41:38;;;;;;;7.23;4.70;;;5.80;99.90;;;;;;4978833;28;20684;-62
2021/03/28 04:44:45;;;;;;;7.10;4.00;;;5.90;99.90;;;;;;4990638;28;20606;-63
2021/03/28 04:47:11;;;;;;;6.97;4.10;;;5.90;99.90;;;;;;4999750;28;20666;-62
2021/03/28 04:50:14;;;;;;;9.90;4.40;;;5.90;99.90;;;;;;5001311;28;20964;-61
2021/03/28 04:53:07;;;;;;;10.40;4.40;;;5.90;99.90;;;;;;4999121;28;20223;-61
2021/03/28 04:56:25;;;;;;;10.07;4.10;;;5.80;99.90;;;;;;4999204;28;20621;-61
2021/03/28 04:59:13;;;;;;;11.10;4.70;;;5.80;99.90;;;;;;5003529;28;22657;-61
2021/03/28 05:01:54;;;;;;;9.20;5.27;;;5.90;99.90;;;;;;4997643;28;21144;-62
2021/03/28 05:04:53;;;;;;;8.00;3.97;;;5.90;99.90;;;;;;4991005;28;21012;-62
2021/03/28 05:07:40;;;;;;;9.67;4.03;;;5.90;99.90;;;;;;4991918;28;20984;-62
2021/03/28 05:10:26;;;;;;;8.33;4.73;;;5.90;99.90;;;;;;5002793;28;20609;-62
2021/03/28 05:13:22;;;;;;;13.60;5.27;;;5.90;99.90;;;;;;5002477;28;21715;-62
2021/03/28 05:16:38;;;;;;;5.57;4.03;;;5.90;99.90;;;;;;5006589;28;20915;-61
2021/03/28 05:19:29;;;;;;;6.97;4.27;;;6.00;99.90;;;;;;4993516;28;24269;-61
2021/03/28 05:22:26;;;;;;;9.10;5.13;;;6.00;99.90;;;;;;5003178;28;20626;-61
2021/03/28 05:25:09;;;;;;;12.80;4.77;;;6.00;99.90;;;;;;5005240;28;20730;-61
2021/03/28 05:27:35;;;;;;;6.40;3.80;;;6.10;99.90;;;;;;5005857;28;20733;-62
2021/03/28 05:30:37;;;;;;;9.90;4.10;;;6.10;99.90;;;;;;5012615;28;21181;-62
2021/03/28 05:33:48;;;;;;;9.60;4.07;;;6.00;99.90;;;;;;5006580;28;20445;-63
2021/03/28 05:36:42;;;;;;;6.70;4.40;;;6.10;99.90;;;;;;5004327;28;20989;-62
2021/03/28 05:39:26;;;;;;;11.57;4.40;;;6.20;99.90;;;;;;5002985;28;20732;-62
2021/03/28 05:42:28;;;;;;;10.33;4.83;;;6.10;99.90;;;;;;5002039;28;21392;-63
2021/03/28 05:45:30;;;;;;;5.47;3.70;;;6.10;99.90;;;;;;5004171;28;21098;-62
2021/03/28 05:48:31;;;;;;;9.90;4.20;;;6.30;99.90;;;;;;4996867;28;20694;-62
2021/03/28 05:51:24;;;;;;;10.47;4.30;;;6.20;99.90;;;;;;4993630;28;20733;-62
2021/03/28 05:54:21;;;;;;;9.60;5.60;;;6.20;99.90;;;;;;5002134;28;23116;-63
2021/03/28 05:57:34;;;;;;;7.40;4.27;;;6.30;99.90;;;;;;5004142;28;20630;-63
2021/03/28 06:00:48;;;;;;;7.03;3.90;;;6.30;99.90;;;;;;5003594;28;21373;-63
2021/03/28 06:03:22;;;;;;;7.00;4.20;;;6.40;99.90;;;;;;4992334;28;20649;-63
2021/03/28 06:06:21;;;;;;;10.93;4.53;;;6.40;99.90;;;;;;5004903;28;20681;-62
2021/03/28 06:09:31;;;;;;;8.27;4.33;;;6.50;99.90;;;;;;5004616;28;22239;-62
2021/03/28 06:12:34;;;;;;;9.47;4.47;;;6.50;99.90;;;;;;5009377;28;20637;-63
2021/03/28 06:15:32;;;;;;;8.30;4.70;;;6.50;99.90;;;;;;4995833;28;20756;-62
2021/03/28 06:18:38;;;;;;;7.23;4.67;;;6.60;99.90;;;;;;5016940;28;20655;-62
2021/03/28 06:21:56;;;;;;;7.87;4.50;;;6.60;99.90;;;;;;4998598;28;21039;-62
2021/03/28 06:24:54;;;;;;;8.47;4.30;;;6.60;99.90;;;;;;4983297;28;21322;-63
2021/03/28 06:27:47;;;;;;;6.67;4.37;;;6.60;99.90;;;;;;5006380;28;20616;-62
2021/03/28 06:30:24;;;;;;;11.10;5.73;;;6.70;99.90;;;;;;5004388;28;20636;-62
2021/03/28 06:33:06;;;;;;;7.67;4.47;;;6.80;99.90;;;;;;5003542;28;20633;-63
2021/03/28 06:35:47;;;;;;;7.10;3.73;;;6.90;99.90;;;;;;5008275;28;20693;-63
2021/03/28 06:38:47;;;;;;;7.93;4.17;;;6.90;99.90;;;;;;5010685;28;20637;-63
2021/03/28 06:41:24;;;;;;;10.77;5.50;;;7.00;99.90;;;;;;5004488;28;20710;-61
2021/03/28 06:44:24;;;;;;;6.90;4.70;;;6.90;99.90;;;;;;5006557;28;21475;-62
2021/03/28 06:47:27;;;;;;;6.20;5.20;;;7.00;99.90;;;;;;5000394;28;20635;-62
2021/03/28 06:50:42;;;;;;;10.20;4.67;;;7.10;99.90;;;;;;5009168;28;20673;-62
2021/03/28 06:53:32;;;;;;;9.77;4.60;;;7.00;99.90;;;;;;5007790;28;20679;-62
2021/03/28 06:56:33;;;;;;;9.73;4.90;;;7.00;99.90;;;;;;5008172;28;20618;-63
2021/03/28 06:58:58;;;;;;;8.53;4.93;;;7.00;99.90;;;;;;5005988;28;21076;-61
2021/03/28 07:01:44;;;;;;;7.97;5.30;;;7.10;99.90;;;;;;5006240;28;20662;-62
2021/03/28 07:05:00;;;;;;;8.20;4.63;;;7.00;99.90;;;;;;4987750;28;20229;-63
2021/03/28 07:07:57;;;;;;;11.17;4.50;;;7.10;99.90;;;;;;4999430;28;20618;-62
2021/03/28 07:10:30;;;;;;;10.43;5.50;;;7.10;99.90;;;;;;5005433;28;20667;-62
2021/03/28 07:13:26;;;;;;;5.47;4.50;;;7.20;99.90;;;;;;5002873;28;21370;-63
2021/03/28 07:16:17;;;;;;;9.77;4.70;;;7.20;99.90;;;;;;4994872;28;21017;-63
2021/03/28 07:19:07;;;;;;;9.60;5.03;;;7.20;99.90;;;;;;4998600;28;20751;-63
2021/03/28 07:22:10;;;;;;;11.50;5.10;;;7.20;99.90;;;;;;4991650;28;20667;-61
2021/03/28 07:25:14;;;;;;;9.20;5.13;;;7.20;99.90;;;;;;5002317;28;20611;-62
2021/03/28 07:28:21;;;;;;;9.83;5.10;;;7.30;99.90;;;;;;4989050;28;20623;-62
2021/03/28 07:31:26;;;;;;;10.50;5.53;;;7.30;99.90;;;;;;4997004;28;20623;-62
2021/03/28 07:34:16;;;;;;;11.60;5.07;;;7.40;99.90;;;;;;5003619;28;20642;-62
2021/03/28 07:37:02;;;;;;;8.10;4.60;;;7.30;99.90;;;;;;5004730;28;20624;-61
2021/03/28 07:39:49;;;;;;;10.87;5.27;;;7.30;99.90;;;;;;5000912;28;20809;-60
2021/03/28 07:42:52;;;;;;;10.10;5.37;;;7.50;99.90;;;;;;4999327;28;20754;-61
2021/03/28 07:45:23;;;;;;;11.77;4.97;;;7.40;99.90;;;;;;4996932;28;21049;-61
2021/03/28 07:48:22;;;;;;;7.20;4.90;;;7.50;99.90;;;;;;5010826;28;20650;-61
2021/03/28 07:51:04;;;;;;;11.20;6.13;;;7.50;99.90;;;;;;5005971;28;21389;-63
2021/03/28 07:54:08;;;;;;;14.20;6.63;;;7.50;99.90;;;;;;4999192;28;20630;-62
2021/03/28 07:57:05;;;;;;;9.00;4.83;;;7.40;99.90;;;;;;5008754;28;21179;-62
2021/03/28 07:59:58;;;;;;;8.37;5.00;;;7.50;99.90;;;;;;5003293;28;21118;-61
2021/03/28 08:02:35;;;;;;;9.80;5.60;;;7.70;99.90;;;;;;5017704;28;21024;-61
2021/03/28 08:05:43;;;;;;;9.03;5.50;;;7.80;99.90;;;;;;5012163;28;20626;-62
2021/03/28 08:08:42;;;;;;;9.20;5.33;;;7.80;99.90;;;;;;5005101;28;22697;-61
2021/03/28 08:11:45;;;;;;;9.17;5.40;;;7.90;99.90;;;;;;4995342;28;20591;-63
2021/03/28 08:14:31;;;;;;;11.13;5.90;;;8.10;99.90;;;;;;4997170;28;20676;-61
2021/03/28 08:17:02;;;;;;;12.97;5.20;;;8.10;99.90;;;;;;4993404;28;21306;-60
2021/03/28 08:19:57;;;;;;;10.83;5.07;;;8.20;99.90;;;;;;5008531;28;20642;-62
2021/03/28 08:22:48;;;;;;;12.57;5.73;;;8.20;99.90;;;;;;4985893;28;20821;-61
2021/03/28 08:25:48;;;;;;;8.20;4.80;;;8.30;99.90;;;;;;4996111;28;20610;-62
2021/03/28 08:28:50;;;;;;;7.07;5.40;;;8.50;99.90;;;;;;5000403;28;21880;-62
2021/03/28 08:31:16;;;;;;;8.23;5.03;;;8.50;99.90;;;;;;5005715;28;20640;-61
2021/03/28 08:34:08;;;;;;;7.57;5.20;;;8.60;99.90;;;;;;5001926;28;21092;-62
2021/03/28 08:37:01;;;;;;;6.27;5.10;;;8.60;99.90;;;;;;5004822;28;22546;-65
2021/03/28 08:39:39;;;;;;;7.57;4.83;;;8.70;99.90;;;;;;5006108;28;20669;-63
2021/03/28 08:42:51;;;;;;;8.40;5.10;;;8.70;99.90;;;;;;5006427;28;21079;-61
2021/03/28 08:45:36;;;;;;;8.27;5.00;;;8.90;99.90;;;;;;5010235;28;20623;-61
2021/03/28 08:48:29;;;;;;;8.03;4.70;;;9.00;99.90;;;;;;5005564;28;20649;-63
2021/03/28 08:51:24;;;;;;;10.17;5.57;;;9.20;99.90;;;;;;5003896;28;20641;-60
2021/03/28 08:54:08;;;;;;;6.70;5.03;;;9.20;99.90;;;;;;5003921;28;20990;-60
2021/03/28 08:57:11;;;;;;;9.47;5.50;;;9.30;99.90;;;;;;5010532;28;21045;-60
2021/03/28 08:59:50;;;;;;;10.60;5.07;;;9.30;99.90;;;;;;5005857;28;21452;-60
2021/03/28 09:02:47;;;;;;;11.80;4.70;;;9.50;99.90;;;;;;5005342;28;22990;-60
2021/03/28 09:05:22;;;;;;;8.47;5.30;;;9.70;99.90;;;;;;5008636;28;20605;-60
2021/03/28 09:08:05;;;;;;;9.67;5.47;;;9.70;99.90;;;;;;5006298;28;21272;-64
2021/03/28 09:11:14;;;;;;;7.20;5.10;;;9.70;99.90;;;;;;5017849;28;22655;-63
2021/03/28 09:14:06;;;;;;;6.83;4.60;;;9.80;99.90;;;;;;5005983;28;21298;-62
2021/03/28 09:17:05;;;;;;;8.40;5.50;;;10.00;99.90;;;;;;5019719;28;20654;-62
2021/03/28 09:20:10;;;;;;;8.07;4.80;;;10.10;99.90;;;;;;4999882;28;20676;-61
2021/03/28 09:23:03;;;;;;;9.83;4.70;;;10.20;99.90;;;;;;5000521;28;20637;-61
2021/03/28 09:25:54;;;;;;;9.93;5.00;;;10.20;99.90;;;;;;5017619;28;20650;-62
2021/03/28 09:28:57;;;;;;;7.40;4.47;;;10.20;99.90;;;;;;5006840;28;20915;-60
2021/03/28 09:31:27;;;;;;;8.50;4.50;;;10.20;99.90;;;;;;5010717;28;21021;-62
2021/03/28 09:34:32;;;;;;;7.77;4.13;;;10.40;99.90;;;;;;5011145;28;20664;-60
2021/03/28 09:37:31;;;;;;;10.93;4.30;;;10.60;99.90;;;;;;5005660;28;20778;-61
2021/03/28 09:40:02;;;;;;;7.53;4.00;;;10.60;99.90;;;;;;5006882;28;20649;-64
2021/03/28 09:42:47;;;;;;;7.90;4.60;;;10.70;99.90;;;;;;4998866;28;21495;-64
2021/03/28 09:45:31;;;;;;;5.43;4.00;;;10.80;99.90;;;;;;5009956;28;21245;-64
2021/03/28 09:48:44;;;;;;;6.80;3.80;;;10.90;99.90;;;;;;5003745;28;20618;-64
2021/03/28 09:51:54;;;;;;;7.23;4.43;;;11.00;99.90;;;;;;4982968;28;20631;-64
2021/03/28 09:54:52;;;;;;;8.40;4.20;;;11.10;99.90;;;;;;4981572;28;20608;-63
2021/03/28 09:57:52;;;;;;;6.30;4.57;;;11.30;99.90;;;;;;4966518;28;20673;-64
2021/03/28 10:00:27;;;;;;;7.53;4.10;;;11.40;99.90;;;;;;4960401;28;20772;-64
2021/03/28 10:03:26;;;;;;;6.83;3.70;;;11.50;99.90;;;;;;4964135;28;20642;-64
2021/03/28 10:06:01;;;;;;;5.13;3.70;;;11.50;99.90;;;;;;4962790;28;20654;-64
2021/03/28 10:08:35;;;;;;;5.97;3.40;;;11.60;99.90;;;;;;4963182;28;21933;-64
2021/03/28 10:11:24;;;;;;;6.03;3.63;;;11.60;99.90;;;;;;4963198;28;21193;-64
2021/03/28 10:14:12;;;;;;;6.57;3.70;;;11.60;99.90;;;;;;4961084;28;20627;-64
2021/03/28 10:16:47;;;;;;;5.43;3.67;;;11.60;99.90;;;;;;4961266;28;20771;-64
2021/03/28 10:19:37;;;;;;;7.50;3.93;;;11.60;99.90;;;;;;4963952;28;20641;-64
2021/03/28 10:22:05;;;;;;;6.53;3.87;;;11.60;99.90;;;;;;4978094;28;20661;-64
2021/03/28 10:25:01;;;;;;;6.23;4.17;;;11.60;99.90;;;;;;4991277;28;20610;-64
2021/03/28 10:27:26;;;;;;;6.07;3.50;;;11.60;99.90;;;;;;4990078;28;20626;-64
2021/03/28 10:30:16;;;;;;;7.63;4.00;;;11.60;99.90;;;;;;4991026;28;21192;-64
2021/03/28 10:33:18;;;;;;;3.80;3.30;;;11.70;99.90;;;;;;4990420;28;20849;-64
2021/03/28 10:36:13;;;;;;;7.30;3.77;;;11.80;99.90;;;;;;4992220;28;21421;-63
2021/03/28 10:39:06;;;;;;;5.30;3.47;;;11.90;99.90;;;;;;4994331;28;20684;-62
2021/03/28 10:41:46;;;;;;;5.07;4.47;;;11.90;99.90;;;;;;4990411;28;23436;-62
2021/03/28 10:44:30;;;;;;;7.77;3.83;;;12.10;99.90;;;;;;4992835;28;21159;-62
2021/03/28 10:47:36;;;;;;;7.13;3.90;;;12.20;99.90;;;;;;4990067;28;20626;-65
2021/03/28 10:50:31;;;;;;;7.17;3.93;;;12.20;99.90;;;;;;4992852;28;21200;-62
2021/03/28 10:53:37;;;;;;;7.60;3.70;;;12.20;99.90;;;;;;4989265;28;20632;-62
2021/03/28 10:56:40;;;;;;;6.07;3.90;;;12.20;99.90;;;;;;4990970;28;20676;-62
2021/03/28 10:59:17;;;;;;;5.87;3.70;;;12.20;99.90;;;;;;4988308;28;20655;-62
2021/03/28 11:02:21;;;;;;;5.87;3.73;;;12.20;99.90;;;;;;5020394;28;20642;-62
2021/03/28 11:05:02;;;;;;;7.30;3.77;;;12.30;99.90;;;;;;4992292;28;21945;-63
2021/03/28 11:08:03;;;;;;;8.00;3.63;;;12.30;99.90;;;;;;4995925;28;20635;-64
2021/03/28 11:11:11;;;;;;;5.13;3.30;;;12.40;99.90;;;;;;4990598;28;20620;-62
2021/03/28 11:13:45;;;;;;;6.67;3.43;;;12.40;99.90;;;;;;4962772;28;20687;-63
2021/03/28 11:16:20;;;;;;;4.23;3.17;;;12.40;99.90;;;;;;4963702;28;20624;-62
2021/03/28 11:19:07;;;;;;;5.80;3.13;;;12.50;99.90;;;;;;4979222;28;20768;-62
2021/03/28 11:22:07;;;;;;;4.23;3.03;;;12.60;99.90;;;;;;4988549;28;20645;-62
2021/03/28 11:24:51;;;;;;;5.10;3.13;;;12.60;99.90;;;;;;4991247;28;20626;-62
2021/03/28 11:27:41;;;;;;;5.50;3.30;;;12.50;99.90;;;;;;4993666;28;20625;-63
2021/03/28 11:30:26;;;;;;;7.40;3.80;;;12.50;99.90;;;;;;4980353;28;20626;-63
2021/03/28 11:33:19;;;;;;;7.50;3.77;;;12.50;99.90;;;;;;4992163;28;21153;-63
2021/03/28 11:35:54;;;;;;;7.63;3.37;;;12.50;99.90;;;;;;4989338;28;20993;-63
2021/03/28 11:38:19;;;;;;;5.13;3.30;;;12.40;99.90;;;;;;4989697;28;20645;-61
2021/03/28 11:40:46;;;;;;;6.40;3.27;;;12.50;99.90;;;;;;4993190;28;20629;-61
2021/03/28 11:43:11;;;;;;;5.37;3.40;;;12.40;99.90;;;;;;4989924;28;20338;-61
2021/03/28 11:45:48;;;;;;;8.10;3.40;;;12.40;99.90;;;;;;4988454;28;22101;-61
2021/03/28 11:48:41;;;;;;;5.37;3.10;;;12.40;99.90;;;;;;4991469;28;20316;-61
2021/03/28 11:51:39;;;;;;;5.10;3.00;;;12.30;99.90;;;;;;4989138;28;20632;-61
2021/03/28 11:54:11;;;;;;;7.83;3.30;;;12.50;99.90;;;;;;4990246;28;20641;-61
2021/03/28 11:57:05;;;;;;;6.47;3.40;;;12.50;99.90;;;;;;4991943;28;20832;-61
2021/03/28 11:59:39;;;;;;;6.33;3.40;;;12.50;99.90;;;;;;4989891;28;21310;-62
2021/03/28 12:02:11;;;;;;;4.70;3.20;;;12.60;99.90;;;;;;4987029;28;20644;-59
2021/03/28 12:04:41;;;;;;;6.57;3.37;;;12.70;99.90;;;;;;4992460;28;20607;-59
2021/03/28 12:07:22;;;;;;;7.23;3.13;;;12.70;99.90;;;;;;4990169;28;21011;-59
2021/03/28 12:09:59;;;;;;;6.43;3.33;;;12.70;99.90;;;;;;4989604;28;21298;-61
2021/03/28 12:12:47;;;;;;;6.80;3.47;;;12.80;99.90;;;;;;4979141;28;20712;-61
2021/03/28 12:15:43;;;;;;;7.00;3.80;;;12.90;99.90;;;;;;4975824;28;20622;-60
2021/03/28 12:18:22;;;;;;;5.97;3.60;;;12.80;99.90;;;;;;4986389;28;20652;-60
2021/03/28 12:21:02;;;;;;;4.67;3.23;;;12.70;99.90;;;;;;4990271;28;22277;-61
2021/03/28 12:23:33;;;;;;;6.07;4.13;;;12.80;99.90;;;;;;4988741;28;20684;-60
2021/03/28 12:26:09;;;;;;;4.90;3.50;;;12.70;99.90;;;;;;4990947;28;20695;-61
2021/03/28 12:28:56;;;;;;;8.20;3.50;;;12.70;99.90;;;;;;4978734;28;21490;-60
2021/03/28 12:31:54;;;;;;;4.60;2.80;;;12.70;99.90;;;;;;4988579;28;20738;-60
2021/03/28 12:34:34;;;;;;;4.13;2.87;;;12.50;99.90;;;;;;4971226;28;21100;-60
2021/03/28 12:37:12;;;;;;;7.03;3.90;;;12.50;99.90;;;;;;4989895;28;20776;-60
2021/03/28 12:39:58;;;;;;;9.80;3.50;;;12.50;99.90;;;;;;4990593;28;20751;-60
2021/03/28 12:42:28;;;;;;;6.17;3.30;;;12.50;99.90;;;;;;4977234;28;20630;-62
2021/03/28 12:45:06;;;;;;;7.30;3.67;;;12.50;99.90;;;;;;4982736;28;20614;-62
2021/03/28 12:47:37;;;;;;;5.67;3.60;;;12.50;99.90;;;;;;5004941;28;20616;-62
2021/03/28 12:50:15;;;;;;;5.77;3.53;;;12.50;99.90;;;;;;5002478;28;20633;-62
2021/03/28 12:52:50;;;;;;;4.67;3.30;;;12.30;99.90;;;;;;4995032;28;20648;-61
2021/03/28 12:55:27;;;;;;;7.00;3.53;;;12.30;99.90;;;;;;5005108;28;20738;-63
2021/03/28 12:58:08;;;;;;;7.83;3.83;;;12.30;99.90;;;;;;5006008;28;20646;-63
2021/03/28 13:00:39;;;;;;;6.03;3.23;;;12.40;99.90;;;;;;4988816;28;20627;-63
2021/03/28 13:03:11;;;;;;;6.53;5.83;;;12.50;99.90;;;;;;5002050;28;20741;-63
2021/03/28 13:05:58;;;;;;;16.27;14.93;;;12.60;99.90;;;;;;5001109;28;21272;-64
2021/03/28 13:08:24;;;;;;;28.50;26.10;;;12.70;99.90;;;;;;5009285;28;20931;-62
2021/03/28 13:10:59;;;;;;;112.30;103.37;;;12.90;99.90;;;;;;5003219;28;21240;-65
2021/03/28 13:13:26;;;;;;;254.37;229.40;;;13.10;99.90;;;;;;5000794;28;20315;-68
2021/03/28 13:15:59;;;;;;;10.47;9.70;;;13.30;99.90;;;;;;5001293;28;20651;-68
2021/03/28 13:18:26;;;;;;;23.60;21.77;;;13.50;99.90;;;;;;5000710;28;20783;-64
2021/03/28 13:21:07;;;;;;;20.20;18.10;;;13.60;99.90;;;;;;5006524;28;21179;-64
2021/03/28 13:23:37;;;;;;;10.53;8.00;;;13.60;99.90;;;;;;4998700;28;20731;-65
2021/03/28 13:26:16;;;;;;;13.13;10.67;;;13.70;99.90;;;;;;5003520;28;20692;-66
2021/03/28 13:29:02;;;;;;;4.63;4.07;;;13.80;99.90;;;;;;5008121;28;20650;-63
2021/03/28 13:31:40;;;;;;;5.33;4.40;;;13.90;99.90;;;;;;5004776;28;24722;-65
2021/03/28 13:34:21;;;;;;;9.60;5.53;;;13.90;99.90;;;;;;5009754;28;20590;-63
2021/03/28 13:37:04;;;;;;;7.67;6.80;;;14.00;99.90;;;;;;5005316;28;20641;-68
2021/03/28 13:39:32;;;;;;;11.03;8.17;;;14.00;99.90;;;;;;5005345;28;20640;-66
2021/03/28 13:41:58;;;;;;;8.63;4.37;;;14.00;99.90;;;;;;5001230;28;20685;-67
2021/03/28 13:44:48;;;;;;;5.80;4.53;;;14.30;99.90;;;;;;5007054;28;20617;-66
2021/03/28 13:47:15;;;;;;;9.23;6.30;;;14.30;99.90;;;;;;5003657;28;20286;-72
2021/03/28 13:49:50;;;;;;;7.35;4.80;;;14.40;99.90;;;;;;4991952;28;20746;-65
2021/03/28 13:52:28;;;;;;;7.13;4.20;;;14.50;99.90;;;;;;5008231;28;20257;-65
2021/03/28 13:55:13;;;;;;;6.33;4.20;;;14.40;99.90;;;;;;5005912;28;20724;-66
2021/03/28 13:57:43;;;;;;;5.60;4.00;;;14.30;99.90;;;;;;5005747;28;20667;-65
2021/03/28 14:00:20;;;;;;;6.20;4.10;;;14.20;99.90;;;;;;5006294;28;21812;-64
2021/03/28 14:02:50;;;;;;;6.40;4.07;;;14.10;99.90;;;;;;5006027;28;21497;-64
2021/03/28 14:05:21;;;;;;;6.73;4.70;;;13.90;99.90;;;;;;5006006;28;20618;-65
2021/03/28 14:07:55;;;;;;;6.60;4.47;;;13.80;99.90;;;;;;5004832;28;20926;-65
2021/03/28 14:10:49;;;;;;;5.37;4.13;;;13.70;99.90;;;;;;5005696;28;20732;-64
2021/03/28 14:13:32;;;;;;;6.37;4.60;;;13.50;99.90;;;;;;5004972;28;20887;-66
2021/03/28 14:16:00;;;;;;;5.80;5.10;;;13.40;99.90;;;;;;5004670;28;20594;-65
2021/03/28 14:18:52;;;;;;;6.80;4.60;;;13.30;99.90;;;;;;5007795;28;21196;-63
2021/03/28 14:21:29;;;;;;;7.90;5.03;;;13.10;99.90;;;;;;5007230;28;20630;-63
2021/03/28 14:24:11;;;;;;;7.40;4.97;;;13.10;99.90;;;;;;4994632;28;20660;-64
2021/03/28 14:26:53;;;;;;;6.80;5.20;;;13.00;99.90;;;;;;5004587;28;21304;-64
2021/03/28 14:29:33;;;;;;;7.00;5.10;;;12.90;99.90;;;;;;5003757;28;20637;-64
2021/03/28 14:32:01;;;;;;;7.20;5.20;;;12.80;99.90;;;;;;5001930;28;20802;-63
2021/03/28 14:34:27;;;;;;;6.77;5.20;;;12.70;99.90;;;;;;4999954;28;20804;-64
2021/03/28 14:37:23;;;;;;;6.93;6.23;;;12.70;99.90;;;;;;5003089;28;20867;-66
2021/03/28 14:40:26;;;;;;;7.27;5.20;;;12.60;99.90;;;;;;5003328;28;20208;-61
2021/03/28 14:42:57;;;;;;;7.20;5.07;;;12.60;99.90;;;;;;5001328;28;20636;-62
2021/03/28 14:45:55;;;;;;;6.50;4.80;;;12.60;99.90;;;;;;5003250;28;20610;-62
2021/03/28 14:48:32;;;;;;;8.80;5.30;;;12.40;99.90;;;;;;4999128;28;21248;-64